Siler City, North Carolina
Current Conditions -  °F | °C
As of 11:15 PM on Tuesday 21 Oct 2014 (Local Time) from K5W8 Reporting Station
Broken Clouds Broken Clouds  
Wind Chill: 54°   Ceiling: 8000
Heat Index: 54°   Visibility: 10mi
Dew Point: 42°   Wind: 3mph
Humidity: 63%   Direction: 340°NNW
Pressure: 29.97"   Gusts: NA
Location:  35.72°N, 79.46°W
Report Text: K5W8 220315Z AUTO 34003KT 10SM BKN080 12/05 A2997 RMK AO2 T01220053
Loading
Personal Weather Stations






























Interactive Weather Map
Tropical Storm Tracking
New forecast layout! Learn more

10-Day Weather Forecast

Advertisements
Track Severe Weather on mobile